createdAt,value
2017-11-13T00:00:05.320Z,0.00
2017-11-13T00:01:05.316Z,0.00
2017-11-13T00:02:05.298Z,0.00
2017-11-13T00:03:05.296Z,0.00
2017-11-13T00:04:05.282Z,0.00
2017-11-13T00:05:05.274Z,0.00
2017-11-13T00:06:05.266Z,0.00
2017-11-13T00:07:05.256Z,0.00
2017-11-13T00:08:05.249Z,0.00
2017-11-13T00:09:05.241Z,0.00
2017-11-13T00:10:05.238Z,0.00
2017-11-13T00:11:05.228Z,0.00
2017-11-13T00:12:05.224Z,0.00
2017-11-13T00:13:05.213Z,0.00
2017-11-13T00:14:05.214Z,0.00
2017-11-13T00:15:05.197Z,0.00
2017-11-13T00:16:05.190Z,0.00
2017-11-13T00:17:05.179Z,0.00
2017-11-13T00:18:05.169Z,0.00
2017-11-13T00:19:05.159Z,0.00
2017-11-13T00:20:05.156Z,0.00
2017-11-13T00:21:05.141Z,0.00
2017-11-13T00:22:05.141Z,0.00
2017-11-13T00:23:05.129Z,0.00
2017-11-13T00:24:05.121Z,0.00
2017-11-13T00:25:05.113Z,0.00
2017-11-13T00:26:05.101Z,0.00
2017-11-13T00:27:05.092Z,0.00
2017-11-13T00:28:05.081Z,0.00
2017-11-13T00:29:05.074Z,0.00
2017-11-13T00:30:05.066Z,0.00
2017-11-13T00:31:05.064Z,0.00
2017-11-13T00:32:05.050Z,0.00
2017-11-13T00:33:05.040Z,0.00
2017-11-13T00:34:05.035Z,0.00
2017-11-13T00:35:05.027Z,0.00
2017-11-13T00:36:05.018Z,0.00
2017-11-13T00:37:05.011Z,0.00
2017-11-13T00:38:05.002Z,0.00
2017-11-13T00:39:04.994Z,0.00
2017-11-13T00:40:04.984Z,0.00
2017-11-13T00:41:04.976Z,0.00
2017-11-13T00:42:04.967Z,0.00
2017-11-13T00:43:04.955Z,0.00
2017-11-13T00:44:04.946Z,0.00
2017-11-13T00:45:04.936Z,0.00
2017-11-13T00:46:04.932Z,0.00
2017-11-13T00:47:04.919Z,0.00
2017-11-13T00:48:04.911Z,0.00
2017-11-13T00:49:04.902Z,0.00
2017-11-13T00:50:04.897Z,0.00
2017-11-13T00:51:04.888Z,0.00
2017-11-13T00:52:04.881Z,0.00
2017-11-13T00:53:04.871Z,0.00
2017-11-13T00:54:04.861Z,0.00
2017-11-13T00:55:04.853Z,0.00
2017-11-13T00:56:04.844Z,0.00
2017-11-13T00:57:04.836Z,0.00
2017-11-13T00:58:04.822Z,0.00
2017-11-13T00:59:04.812Z,0.00
2017-11-13T01:00:04.805Z,0.00
2017-11-13T01:01:04.796Z,0.00
2017-11-13T01:02:04.786Z,0.00
2017-11-13T01:03:04.778Z,0.00
2017-11-13T01:04:04.768Z,0.00
2017-11-13T01:05:04.761Z,0.00
2017-11-13T01:06:04.758Z,0.00
2017-11-13T01:07:04.746Z,0.00
2017-11-13T01:08:04.738Z,0.00
2017-11-13T01:09:04.729Z,0.00
2017-11-13T01:10:04.721Z,0.00
2017-11-13T01:11:04.718Z,0.00
2017-11-13T01:12:04.703Z,0.00
2017-11-13T01:13:04.693Z,0.00
2017-11-13T01:14:04.680Z,0.00
2017-11-13T01:15:04.672Z,0.00
2017-11-13T01:16:04.663Z,0.00
2017-11-13T01:17:04.660Z,0.00
2017-11-13T01:18:04.647Z,0.00
2017-11-13T01:19:04.637Z,0.00
2017-11-13T01:20:04.627Z,0.00
2017-11-13T01:21:04.618Z,0.00
2017-11-13T01:22:04.616Z,0.00
2017-11-13T01:23:04.605Z,0.00
2017-11-13T01:24:04.596Z,0.00
2017-11-13T01:25:04.588Z,0.00
2017-11-13T01:26:04.574Z,0.00
2017-11-13T01:27:04.566Z,0.00
2017-11-13T01:28:04.557Z,0.00
2017-11-13T01:29:04.548Z,0.00
2017-11-13T01:30:04.543Z,0.00
2017-11-13T01:31:04.535Z,0.00
2017-11-13T01:32:04.525Z,0.00
2017-11-13T01:33:04.520Z,0.00
2017-11-13T01:34:04.508Z,0.00
2017-11-13T01:35:04.498Z,0.00
2017-11-13T01:36:04.490Z,0.00
2017-11-13T01:37:04.481Z,0.00
2017-11-13T01:38:04.467Z,0.00
2017-11-13T01:39:04.459Z,0.00
2017-11-13T01:40:04.450Z,0.00
2017-11-13T01:41:04.450Z,0.00
2017-11-13T01:42:04.432Z,0.00
2017-11-13T01:43:04.422Z,0.00
2017-11-13T01:44:04.412Z,0.00
2017-11-13T01:45:04.408Z,0.00
2017-11-13T01:46:04.400Z,0.00
2017-11-13T01:47:04.392Z,0.00
2017-11-13T01:48:04.380Z,0.00
2017-11-13T01:49:04.381Z,0.00
2017-11-13T01:50:04.364Z,0.00
2017-11-13T01:51:04.353Z,0.00
2017-11-13T01:52:04.345Z,0.00
2017-11-13T01:53:04.338Z,0.00
2017-11-13T01:54:04.323Z,0.00
2017-11-13T01:55:04.312Z,0.00
2017-11-13T01:56:04.306Z,0.00
2017-11-13T01:57:04.296Z,0.00
2017-11-13T01:58:04.285Z,0.00
2017-11-13T01:59:04.276Z,0.00
2017-11-13T02:00:04.268Z,0.00
2017-11-13T02:01:04.265Z,0.00
2017-11-13T02:02:04.255Z,0.00
2017-11-13T02:03:04.245Z,0.00
2017-11-13T02:04:04.237Z,0.00
2017-11-13T02:05:04.230Z,0.00
2017-11-13T02:06:04.219Z,0.00
2017-11-13T02:07:04.209Z,0.00
2017-11-13T02:08:04.200Z,0.00
2017-11-13T02:09:04.191Z,0.00
2017-11-13T02:10:04.177Z,0.00
2017-11-13T02:11:04.168Z,0.00
2017-11-13T02:12:04.160Z,0.00
2017-11-13T02:13:04.151Z,0.00
2017-11-13T02:14:04.140Z,0.00
2017-11-13T02:15:04.132Z,0.00
2017-11-13T02:16:04.124Z,0.00
2017-11-13T02:17:04.114Z,0.00
2017-11-13T02:18:04.110Z,0.00
2017-11-13T02:19:04.100Z,0.00
2017-11-13T02:20:04.093Z,0.00
2017-11-13T02:21:04.083Z,0.00
2017-11-13T02:22:04.074Z,0.00
2017-11-13T02:23:04.063Z,0.00
2017-11-13T02:24:04.053Z,0.00
2017-11-13T02:25:04.045Z,0.00
2017-11-13T02:26:04.032Z,0.00
2017-11-13T02:27:04.028Z,0.00
2017-11-13T02:28:04.015Z,0.00
2017-11-13T02:29:04.005Z,0.00
2017-11-13T02:30:03.998Z,0.00
2017-11-13T02:31:03.993Z,0.00
2017-11-13T02:32:03.985Z,0.00
2017-11-13T02:33:03.971Z,0.00
2017-11-13T02:34:03.962Z,0.00
2017-11-13T02:35:03.955Z,0.00
2017-11-13T02:36:03.945Z,0.00
2017-11-13T02:37:03.936Z,0.00
2017-11-13T02:38:03.926Z,0.00
2017-11-13T02:39:03.917Z,0.00
2017-11-13T02:40:03.909Z,0.00
2017-11-13T02:41:03.899Z,0.00
2017-11-13T02:42:03.888Z,0.00
2017-11-13T02:43:03.877Z,0.00
2017-11-13T02:44:03.868Z,0.00
2017-11-13T02:45:03.859Z,0.00
2017-11-13T02:46:03.859Z,0.00
2017-11-13T02:47:03.843Z,0.00
2017-11-13T02:48:03.831Z,0.00
2017-11-13T02:49:03.824Z,0.00
2017-11-13T02:50:03.820Z,0.00
2017-11-13T02:51:03.809Z,0.00
2017-11-13T02:52:03.807Z,0.00
2017-11-13T02:53:03.793Z,0.00
2017-11-13T02:54:03.783Z,0.00
2017-11-13T02:55:03.775Z,0.00
2017-11-13T02:56:03.767Z,0.00
2017-11-13T02:57:03.758Z,0.00
2017-11-13T02:58:03.756Z,0.00
2017-11-13T02:59:03.734Z,0.00
2017-11-13T03:00:03.728Z,0.00
2017-11-13T03:01:03.719Z,0.00
2017-11-13T03:02:03.710Z,0.00
2017-11-13T03:03:03.703Z,0.00
2017-11-13T03:04:03.691Z,0.00
2017-11-13T03:05:03.683Z,0.00
2017-11-13T03:06:03.679Z,0.00
2017-11-13T03:07:03.672Z,0.00
2017-11-13T03:08:03.662Z,0.00
2017-11-13T03:09:03.654Z,0.00
2017-11-13T03:10:03.644Z,0.00
2017-11-13T03:11:03.634Z,0.00
2017-11-13T03:12:03.625Z,0.00
2017-11-13T03:13:03.616Z,0.00
2017-11-13T03:14:03.606Z,0.00
2017-11-13T03:15:03.595Z,0.00
2017-11-13T03:16:03.586Z,0.00
2017-11-13T03:17:03.577Z,0.00
2017-11-13T03:18:03.569Z,0.00
2017-11-13T03:19:03.558Z,0.00
2017-11-13T03:20:03.550Z,0.00
2017-11-13T03:21:03.542Z,0.00
2017-11-13T03:22:03.538Z,0.00
2017-11-13T03:23:03.528Z,0.00
2017-11-13T03:24:03.519Z,0.00
2017-11-13T03:25:03.510Z,0.00
2017-11-13T03:26:03.504Z,0.00
2017-11-13T03:27:03.493Z,0.00
2017-11-13T03:28:03.485Z,0.00
2017-11-13T03:29:03.476Z,0.00
2017-11-13T03:30:03.465Z,0.00
2017-11-13T03:31:03.466Z,0.00
2017-11-13T03:32:03.446Z,0.00
2017-11-13T03:33:03.442Z,0.00
2017-11-13T03:34:03.433Z,0.00
2017-11-13T03:35:03.425Z,0.00
2017-11-13T03:36:03.415Z,0.00
2017-11-13T03:37:03.406Z,0.00
2017-11-13T03:38:03.394Z,0.00
2017-11-13T03:39:03.385Z,0.00
2017-11-13T03:40:03.377Z,0.00
2017-11-13T03:41:03.368Z,0.00
2017-11-13T03:42:03.360Z,0.00
2017-11-13T03:43:03.364Z,0.00
2017-11-13T03:44:03.341Z,0.00
2017-11-13T03:45:03.336Z,0.00
2017-11-13T03:46:03.328Z,0.00
2017-11-13T03:47:03.320Z,0.00
2017-11-13T03:48:03.311Z,0.00
2017-11-13T03:49:03.305Z,0.00
2017-11-13T03:50:03.300Z,0.00
2017-11-13T03:51:03.289Z,0.00
2017-11-13T03:52:03.277Z,0.00
2017-11-13T03:53:03.268Z,0.00
2017-11-13T03:54:03.256Z,0.00
2017-11-13T03:55:03.247Z,0.00
2017-11-13T03:56:03.239Z,0.00
2017-11-13T03:57:03.230Z,0.00
2017-11-13T03:58:03.221Z,0.00
2017-11-13T03:59:03.213Z,0.00
2017-11-13T04:00:03.204Z,0.00
2017-11-13T04:01:03.197Z,0.00
2017-11-13T04:02:03.192Z,0.00
2017-11-13T04:03:03.187Z,0.00
2017-11-13T04:04:03.174Z,0.00
2017-11-13T04:05:03.165Z,0.00
2017-11-13T04:06:03.157Z,0.00
2017-11-13T04:07:03.150Z,0.00
2017-11-13T04:08:03.142Z,0.00
2017-11-13T04:09:03.133Z,0.00
2017-11-13T04:10:03.121Z,0.00
2017-11-13T04:11:03.109Z,0.00
2017-11-13T04:12:03.104Z,0.00
2017-11-13T04:13:03.094Z,0.00
2017-11-13T04:14:03.087Z,0.00
2017-11-13T04:15:03.078Z,0.00
2017-11-13T04:16:03.069Z,0.00
2017-11-13T04:17:03.179Z,0.00
2017-11-13T04:18:03.061Z,0.00
2017-11-13T04:19:03.050Z,0.00
2017-11-13T04:20:03.041Z,0.00
2017-11-13T04:21:03.034Z,0.00
2017-11-13T04:22:03.025Z,0.00
2017-11-13T04:23:03.016Z,0.00
2017-11-13T04:24:03.009Z,0.00
2017-11-13T04:25:03.019Z,0.00
2017-11-13T04:26:03.008Z,0.00
2017-11-13T04:27:02.981Z,0.00
2017-11-13T04:28:02.972Z,0.00
2017-11-13T04:29:02.964Z,0.00
2017-11-13T04:30:02.956Z,0.00
2017-11-13T04:31:02.947Z,0.00
2017-11-13T04:32:02.941Z,0.00
2017-11-13T04:33:02.932Z,0.00
2017-11-13T04:34:02.931Z,0.00
2017-11-13T04:35:02.919Z,0.00
2017-11-13T04:36:02.910Z,0.00
2017-11-13T04:37:02.903Z,0.00
2017-11-13T04:38:02.897Z,0.00
2017-11-13T04:39:02.882Z,0.00
2017-11-13T04:40:02.874Z,0.00
2017-11-13T04:41:02.866Z,0.00
2017-11-13T04:42:02.863Z,0.00
2017-11-13T04:43:02.863Z,0.00
2017-11-13T04:44:02.845Z,0.00
2017-11-13T04:45:02.836Z,0.00
2017-11-13T04:46:02.829Z,0.00
2017-11-13T04:47:02.821Z,0.00
2017-11-13T04:48:02.813Z,0.00
2017-11-13T04:49:02.806Z,0.00
2017-11-13T04:50:02.793Z,0.00
2017-11-13T04:51:02.784Z,0.00
2017-11-13T04:52:02.782Z,0.00
2017-11-13T04:53:02.767Z,0.00
2017-11-13T04:54:02.759Z,0.00
2017-11-13T04:55:02.750Z,0.00
2017-11-13T04:56:02.744Z,0.00
2017-11-13T04:57:02.736Z,0.00
2017-11-13T04:58:02.733Z,0.00
2017-11-13T04:59:02.723Z,0.00
2017-11-13T05:00:02.714Z,0.00
2017-11-13T05:01:02.708Z,0.00
2017-11-13T05:02:02.699Z,0.00
2017-11-13T05:03:02.690Z,0.00
2017-11-13T05:04:02.684Z,0.00
2017-11-13T05:05:02.674Z,0.00
2017-11-13T05:06:02.663Z,0.00
2017-11-13T05:07:02.655Z,0.00
2017-11-13T05:08:02.647Z,0.00
2017-11-13T05:09:02.645Z,0.00
2017-11-13T05:10:02.631Z,0.00
2017-11-13T05:11:02.624Z,0.00
2017-11-13T05:12:02.615Z,0.00
2017-11-13T05:13:02.613Z,0.00
2017-11-13T05:14:02.602Z,0.00
2017-11-13T05:15:02.595Z,0.00
2017-11-13T05:16:02.587Z,0.00
2017-11-13T05:17:02.582Z,0.00
2017-11-13T05:18:02.574Z,0.00
2017-11-13T05:19:02.570Z,0.00
2017-11-13T05:20:02.556Z,0.00
2017-11-13T05:21:02.548Z,0.00
2017-11-13T05:22:02.537Z,0.00
2017-11-13T05:23:02.534Z,0.00
2017-11-13T05:24:02.519Z,0.00
2017-11-13T05:25:02.517Z,0.00
2017-11-13T05:26:02.503Z,0.00
2017-11-13T05:27:02.496Z,0.00
2017-11-13T05:28:02.486Z,0.00
2017-11-13T05:29:02.481Z,0.00
2017-11-13T05:30:02.480Z,0.00
2017-11-13T05:31:02.467Z,0.00
2017-11-13T05:32:02.461Z,0.00
2017-11-13T05:33:02.461Z,0.00
2017-11-13T05:34:02.445Z,0.00
2017-11-13T05:35:02.436Z,0.00
2017-11-13T05:36:02.427Z,0.00
2017-11-13T05:37:02.422Z,0.00
2017-11-13T05:38:02.410Z,0.00
2017-11-13T05:39:02.407Z,0.00
2017-11-13T05:40:02.393Z,0.00
2017-11-13T05:41:02.395Z,0.00
2017-11-13T05:42:02.389Z,0.00
2017-11-13T05:43:02.375Z,0.00
2017-11-13T05:44:02.365Z,0.00
2017-11-13T05:45:02.357Z,0.00
2017-11-13T05:46:02.345Z,0.00
2017-11-13T05:47:02.337Z,0.00
2017-11-13T05:48:02.328Z,0.00
2017-11-13T05:49:02.320Z,0.00
2017-11-13T05:50:02.312Z,0.00
2017-11-13T05:51:02.303Z,0.00
2017-11-13T05:52:02.296Z,0.00
2017-11-13T05:53:02.290Z,0.00
2017-11-13T05:54:02.285Z,0.00
2017-11-13T05:55:02.276Z,0.00
2017-11-13T05:56:02.270Z,0.00
2017-11-13T05:57:02.260Z,0.00
2017-11-13T05:58:02.255Z,0.00
2017-11-13T05:59:02.245Z,0.00
2017-11-13T06:00:02.243Z,0.00
2017-11-13T06:01:02.230Z,0.00
2017-11-13T06:02:02.225Z,0.00
2017-11-13T06:03:02.210Z,0.00
2017-11-13T06:04:02.202Z,0.00
2017-11-13T06:05:02.198Z,0.00
2017-11-13T06:06:02.187Z,0.00
2017-11-13T06:07:02.178Z,0.00
2017-11-13T06:08:02.174Z,0.00
2017-11-13T06:09:02.164Z,0.00
2017-11-13T06:10:02.159Z,0.00
2017-11-13T06:11:02.151Z,0.00
2017-11-13T06:12:02.144Z,0.00
2017-11-13T06:13:02.140Z,0.00
2017-11-13T06:14:02.128Z,0.00
2017-11-13T06:15:02.118Z,0.00
2017-11-13T06:16:02.113Z,4.00
2017-11-13T06:17:02.109Z,4.00
2017-11-13T06:18:02.106Z,0.00
2017-11-13T06:19:02.084Z,0.00
2017-11-13T06:20:02.077Z,0.00
2017-11-13T06:21:02.070Z,0.00
2017-11-13T06:22:02.062Z,0.00
2017-11-13T06:23:02.052Z,4.00
2017-11-13T06:24:02.045Z,4.00
2017-11-13T06:25:02.040Z,4.00
2017-11-13T06:26:02.034Z,8.00
2017-11-13T06:27:02.029Z,8.00
2017-11-13T06:28:02.018Z,12.00
2017-11-13T06:29:02.011Z,16.00
2017-11-13T06:30:02.004Z,20.00
2017-11-13T06:31:01.995Z,28.00
2017-11-13T06:32:02.001Z,36.00
2017-11-13T06:33:01.981Z,44.00
2017-11-13T06:34:01.970Z,48.00
2017-11-13T06:35:01.961Z,56.00
2017-11-13T06:36:01.954Z,64.00
2017-11-13T06:37:01.946Z,76.00
2017-11-13T06:38:01.938Z,84.00
2017-11-13T06:39:01.931Z,96.00
2017-11-13T06:40:01.922Z,108.00
2017-11-13T06:41:01.915Z,120.00
2017-11-13T06:42:01.912Z,136.00
2017-11-13T06:43:01.901Z,152.00
2017-11-13T06:44:01.895Z,168.00
2017-11-13T06:45:01.887Z,184.00
2017-11-13T06:46:01.876Z,208.00
2017-11-13T06:47:01.867Z,232.00
2017-11-13T06:48:01.859Z,252.00
2017-11-13T06:49:01.850Z,268.00
2017-11-13T06:50:01.852Z,288.00
2017-11-13T06:51:01.838Z,308.00
2017-11-13T06:52:01.832Z,324.00
2017-11-13T06:53:01.821Z,344.00
2017-11-13T06:54:01.815Z,360.00
2017-11-13T06:55:01.805Z,372.00
2017-11-13T06:56:01.799Z,372.00
2017-11-13T06:57:01.791Z,372.00
2017-11-13T06:58:01.780Z,372.00
2017-11-13T06:59:01.768Z,380.00
2017-11-13T07:00:01.763Z,400.00
2017-11-13T07:01:01.754Z,420.00
2017-11-13T07:02:01.747Z,440.00
2017-11-13T07:03:01.743Z,460.00
2017-11-13T07:04:01.733Z,484.00
2017-11-13T07:05:01.720Z,528.00
2017-11-13T07:06:01.717Z,584.00
2017-11-13T07:07:01.709Z,648.00
2017-11-13T07:08:01.701Z,712.00
2017-11-13T07:09:01.693Z,776.00
2017-11-13T07:10:01.684Z,860.00
2017-11-13T07:11:01.676Z,956.00
2017-11-13T07:12:01.669Z,1044.00
2017-11-13T07:13:01.664Z,1120.00
2017-11-13T07:14:01.649Z,1180.00
2017-11-13T07:15:01.641Z,1244.00
2017-11-13T07:16:01.652Z,1308.00
2017-11-13T07:17:01.628Z,1320.00
2017-11-13T07:18:01.615Z,1356.00
2017-11-13T07:19:01.606Z,1420.00
2017-11-13T07:20:01.600Z,1516.00
2017-11-13T07:21:01.590Z,1652.00
2017-11-13T07:22:01.587Z,1856.00
2017-11-13T07:23:01.581Z,1956.00
2017-11-13T07:24:01.570Z,1960.00
2017-11-13T07:25:01.569Z,2072.00
2017-11-13T07:26:01.556Z,2208.00
2017-11-13T07:27:01.546Z,2212.00
2017-11-13T07:28:01.539Z,2408.00
2017-11-13T07:29:01.532Z,2860.00
2017-11-13T07:30:01.518Z,3104.00
2017-11-13T07:31:01.512Z,2888.00
2017-11-13T07:32:01.503Z,2604.00
2017-11-13T07:33:01.495Z,3880.00
2017-11-13T07:34:01.487Z,4280.00
2017-11-13T07:35:01.479Z,4504.00
2017-11-13T07:36:01.472Z,4780.00
2017-11-13T07:37:01.465Z,5016.00
2017-11-13T07:38:01.461Z,5208.00
2017-11-13T07:39:01.457Z,4728.00
2017-11-13T07:40:01.445Z,3472.00
2017-11-13T07:41:01.439Z,3608.00
2017-11-13T07:42:01.430Z,2764.00
2017-11-13T07:43:01.424Z,2984.00
2017-11-13T07:44:01.417Z,2872.00
2017-11-13T07:45:01.410Z,2668.00
2017-11-13T07:46:01.414Z,2620.00
2017-11-13T07:47:01.391Z,2680.00
2017-11-13T07:48:01.385Z,3288.00
2017-11-13T07:49:01.379Z,3244.00
2017-11-13T07:50:01.376Z,2656.00
2017-11-13T07:51:01.368Z,2640.00
2017-11-13T07:52:01.361Z,2720.00
2017-11-13T07:53:01.367Z,2920.00
2017-11-13T07:54:01.344Z,3016.00
2017-11-13T07:55:01.336Z,3088.00
2017-11-13T07:56:01.330Z,3012.00
2017-11-13T07:57:01.323Z,2932.00
2017-11-13T07:58:01.316Z,3016.00
2017-11-13T07:59:01.309Z,3236.00
2017-11-13T08:00:01.302Z,3508.00
2017-11-13T08:01:01.295Z,3636.00
2017-11-13T08:02:01.293Z,3460.00
2017-11-13T08:03:01.285Z,3060.00
2017-11-13T08:04:01.279Z,2860.00
2017-11-13T08:05:01.273Z,2828.00
2017-11-13T08:06:01.268Z,4612.00
2017-11-13T08:07:01.259Z,4304.00
2017-11-13T08:08:01.251Z,1840.00
2017-11-13T08:09:01.246Z,1756.00
2017-11-13T08:10:01.236Z,1864.00
2017-11-13T08:11:01.228Z,1680.00
2017-11-13T08:12:01.221Z,1936.00
2017-11-13T08:13:01.216Z,2668.00
2017-11-13T08:14:01.210Z,2300.00
2017-11-13T08:15:01.237Z,2256.00
2017-11-13T08:16:01.196Z,2356.00
2017-11-13T08:17:01.187Z,2444.00
2017-11-13T08:18:01.186Z,2404.00
2017-11-13T08:19:01.187Z,2420.00
2017-11-13T08:20:01.171Z,2588.00
2017-11-13T08:21:01.166Z,2800.00
2017-11-13T08:22:01.158Z,6328.00
2017-11-13T08:23:01.151Z,3856.00
2017-11-13T08:24:01.147Z,7572.00
2017-11-13T08:25:01.140Z,8860.00
2017-11-13T08:26:01.129Z,8308.00
2017-11-13T08:27:01.122Z,7224.00
2017-11-13T08:28:01.116Z,6604.00
2017-11-13T08:29:01.111Z,6076.00
2017-11-13T08:30:01.105Z,5740.00
2017-11-13T08:31:01.098Z,5924.00
2017-11-13T08:32:01.093Z,6168.00
2017-11-13T08:33:01.114Z,6440.00
2017-11-13T08:34:01.093Z,6800.00
2017-11-13T08:35:01.082Z,7012.00
2017-11-13T08:36:01.077Z,7396.00
2017-11-13T08:37:01.086Z,8408.00
2017-11-13T08:38:01.068Z,8808.00
2017-11-13T08:39:01.063Z,8896.00
2017-11-13T08:40:01.059Z,9192.00
2017-11-13T08:41:01.053Z,9180.00
2017-11-13T08:42:01.047Z,9264.00
2017-11-13T08:43:01.041Z,9404.00
2017-11-13T08:44:01.042Z,9368.00
2017-11-13T08:45:01.035Z,9460.00
2017-11-13T08:46:01.033Z,9432.00
2017-11-13T08:47:01.030Z,9552.00
2017-11-13T08:48:01.027Z,9528.00
2017-11-13T08:49:01.025Z,9672.00
2017-11-13T08:50:01.039Z,9852.00
2017-11-13T08:51:01.026Z,9840.00
2017-11-13T08:52:01.027Z,10208.00
2017-11-13T08:53:01.024Z,10128.00
2017-11-13T08:54:01.020Z,4568.00
2017-11-13T08:55:01.021Z,4764.00
2017-11-13T08:56:01.018Z,10356.00
2017-11-13T08:57:01.019Z,10548.00
2017-11-13T08:58:01.022Z,10508.00
2017-11-13T08:59:01.023Z,10664.00
2017-11-13T09:00:01.023Z,10748.00
2017-11-13T09:01:01.022Z,10852.00
2017-11-13T09:02:01.029Z,10916.00
2017-11-13T09:03:01.025Z,10684.00
2017-11-13T09:04:01.026Z,10708.00
2017-11-13T09:05:01.026Z,8780.00
2017-11-13T09:06:01.025Z,10960.00
2017-11-13T09:07:01.025Z,10968.00
2017-11-13T09:08:01.026Z,11096.00
2017-11-13T09:09:01.030Z,11344.00
2017-11-13T09:10:01.031Z,11276.00
2017-11-13T09:11:01.034Z,11480.00
2017-11-13T09:12:01.036Z,11468.00
2017-11-13T09:13:01.041Z,11388.00
2017-11-13T09:14:01.052Z,11344.00
2017-11-13T09:15:01.047Z,11368.00
2017-11-13T09:16:01.050Z,11332.00
2017-11-13T09:17:01.056Z,11368.00
2017-11-13T09:18:01.059Z,11336.00
2017-11-13T09:19:01.062Z,11500.00
2017-11-13T09:20:01.063Z,11468.00
2017-11-13T09:21:01.070Z,11516.00
2017-11-13T09:22:01.067Z,11392.00
2017-11-13T09:23:01.070Z,11676.00
2017-11-13T09:24:01.076Z,11460.00
2017-11-13T09:25:01.078Z,11520.00
2017-11-13T09:26:01.085Z,11492.00
2017-11-13T09:27:01.087Z,11688.00
2017-11-13T09:28:01.092Z,11660.00
2017-11-13T09:29:01.098Z,11636.00
2017-11-13T09:30:01.107Z,11728.00
2017-11-13T09:31:01.108Z,11912.00
2017-11-13T09:32:01.114Z,11888.00
2017-11-13T09:33:01.117Z,11824.00
2017-11-13T09:34:01.122Z,11892.00
2017-11-13T09:35:01.135Z,11928.00
2017-11-13T09:36:01.131Z,12060.00
2017-11-13T09:37:01.138Z,11992.00
2017-11-13T09:38:01.137Z,12016.00
2017-11-13T09:39:01.142Z,11936.00
2017-11-13T09:40:01.181Z,11968.00
2017-11-13T09:41:01.162Z,11964.00
2017-11-13T09:42:01.174Z,12020.00
2017-11-13T09:43:01.395Z,12064.00
2017-11-13T09:44:01.191Z,12136.00
2017-11-13T09:45:01.192Z,12148.00
2017-11-13T09:46:01.195Z,12368.00
2017-11-13T09:47:01.194Z,12336.00
2017-11-13T09:48:01.204Z,12204.00
2017-11-13T09:49:01.205Z,12156.00
2017-11-13T09:50:01.215Z,12304.00
2017-11-13T09:51:01.219Z,12608.00
2017-11-13T09:52:01.225Z,12768.00
2017-11-13T09:53:01.246Z,12720.00
2017-11-13T09:54:01.231Z,12724.00
2017-11-13T09:55:01.230Z,12776.00
2017-11-13T09:56:01.242Z,12784.00
2017-11-13T09:57:01.247Z,12840.00
2017-11-13T09:58:01.256Z,12820.00
2017-11-13T09:59:01.260Z,12896.00
2017-11-13T10:00:01.265Z,13064.00
2017-11-13T10:01:01.265Z,13076.00
2017-11-13T10:02:01.270Z,13068.00
2017-11-13T10:03:01.282Z,13024.00
2017-11-13T10:04:01.281Z,13080.00
2017-11-13T10:05:01.287Z,13188.00
2017-11-13T10:06:01.291Z,13088.00
2017-11-13T10:07:01.291Z,12988.00
2017-11-13T10:08:01.300Z,13464.00
2017-11-13T10:09:01.308Z,14132.00
2017-11-13T10:10:01.316Z,14312.00
2017-11-13T10:11:01.317Z,14380.00
2017-11-13T10:12:01.327Z,14424.00
2017-11-13T10:13:01.334Z,13824.00
2017-11-13T10:14:01.334Z,12948.00
2017-11-13T10:15:01.345Z,12760.00
2017-11-13T10:16:01.351Z,12680.00
2017-11-13T10:17:01.357Z,12748.00
2017-11-13T10:18:01.354Z,12728.00
2017-11-13T10:19:01.359Z,12716.00
2017-11-13T10:20:01.385Z,12800.00
2017-11-13T10:21:01.382Z,12748.00
2017-11-13T10:22:01.383Z,12816.00
2017-11-13T10:23:01.388Z,12788.00
2017-11-13T10:24:01.388Z,12672.00
2017-11-13T10:25:01.414Z,12640.00
2017-11-13T10:26:01.414Z,12504.00
2017-11-13T10:27:01.410Z,12584.00
2017-11-13T10:28:01.423Z,12600.00
2017-11-13T10:29:01.430Z,12544.00
2017-11-13T10:30:01.460Z,12548.00
2017-11-13T10:31:01.444Z,12596.00
2017-11-13T10:32:01.445Z,12624.00
2017-11-13T10:33:01.453Z,12520.00
2017-11-13T10:34:01.482Z,12540.00
2017-11-13T10:35:01.460Z,12556.00
2017-11-13T10:36:01.479Z,12412.00
2017-11-13T10:37:01.467Z,12496.00
2017-11-13T10:38:01.477Z,12388.00
2017-11-13T10:39:01.509Z,12456.00
2017-11-13T10:40:01.536Z,12464.00
2017-11-13T10:41:01.523Z,12392.00
2017-11-13T10:42:01.507Z,12332.00
2017-11-13T10:43:01.511Z,12356.00
2017-11-13T10:44:01.517Z,12664.00
2017-11-13T10:45:01.523Z,12712.00
2017-11-13T10:46:01.523Z,12304.00
2017-11-13T10:47:01.533Z,8708.00
2017-11-13T10:48:01.540Z,6884.00
2017-11-13T10:49:01.545Z,11940.00
2017-11-13T10:50:01.547Z,11768.00
2017-11-13T10:51:01.552Z,11592.00
2017-11-13T10:52:01.558Z,11692.00
2017-11-13T10:53:01.558Z,11744.00
2017-11-13T10:54:01.566Z,11552.00
2017-11-13T10:55:01.573Z,4980.00
2017-11-13T10:56:01.573Z,11948.00
2017-11-13T10:57:01.583Z,10692.00
2017-11-13T10:58:01.594Z,10740.00
2017-11-13T10:59:01.606Z,8780.00
2017-11-13T11:00:01.604Z,5664.00
2017-11-13T11:01:01.609Z,3912.00
2017-11-13T11:02:01.607Z,3760.00
2017-11-13T11:03:01.616Z,4208.00
2017-11-13T11:04:01.635Z,4436.00
2017-11-13T11:05:01.626Z,11484.00
2017-11-13T11:06:01.626Z,9876.00
2017-11-13T11:07:01.628Z,8404.00
2017-11-13T11:08:01.631Z,4024.00
2017-11-13T11:09:01.637Z,3856.00
2017-11-13T11:10:01.638Z,4620.00
2017-11-13T11:11:01.646Z,10668.00
2017-11-13T11:12:01.646Z,4968.00
2017-11-13T11:13:01.660Z,8068.00
2017-11-13T11:14:01.672Z,4848.00
2017-11-13T11:15:01.654Z,5508.00
2017-11-13T11:16:01.657Z,6120.00
2017-11-13T11:17:01.660Z,4880.00
2017-11-13T11:18:01.661Z,4408.00
2017-11-13T11:19:01.664Z,3948.00
2017-11-13T11:20:01.666Z,3864.00
2017-11-13T11:21:01.664Z,4348.00
2017-11-13T11:22:01.662Z,4648.00
2017-11-13T11:23:01.673Z,5524.00
2017-11-13T11:24:01.662Z,5248.00
2017-11-13T11:25:01.668Z,6504.00
2017-11-13T11:26:01.662Z,7040.00
2017-11-13T11:27:01.663Z,6320.00
2017-11-13T11:28:01.662Z,5360.00
2017-11-13T11:29:01.665Z,7144.00
2017-11-13T11:30:01.667Z,6252.00
2017-11-13T11:31:01.669Z,5136.00
2017-11-13T11:32:01.667Z,4652.00
2017-11-13T11:33:01.680Z,4220.00
2017-11-13T11:34:01.671Z,5008.00
2017-11-13T11:35:01.665Z,3888.00
2017-11-13T11:36:01.663Z,4284.00
2017-11-13T11:37:01.664Z,4712.00
2017-11-13T11:38:01.659Z,4448.00
2017-11-13T11:39:01.656Z,3980.00
2017-11-13T11:40:01.655Z,3728.00
2017-11-13T11:41:01.654Z,3924.00
2017-11-13T11:42:01.654Z,3772.00
2017-11-13T11:43:01.652Z,3740.00
2017-11-13T11:44:01.650Z,3792.00
2017-11-13T11:45:01.649Z,3988.00
2017-11-13T11:46:01.652Z,3696.00
2017-11-13T11:47:01.650Z,3664.00
2017-11-13T11:48:01.650Z,4712.00
2017-11-13T11:49:01.646Z,3688.00
2017-11-13T11:50:01.645Z,3520.00
2017-11-13T11:51:01.642Z,3500.00
2017-11-13T11:52:01.641Z,3624.00
2017-11-13T11:53:01.640Z,4056.00
2017-11-13T11:54:01.632Z,3312.00
2017-11-13T11:55:01.630Z,3284.00
2017-11-13T11:56:01.627Z,3300.00
2017-11-13T11:57:01.626Z,3356.00
2017-11-13T11:58:01.628Z,3308.00
2017-11-13T11:59:01.621Z,3164.00
2017-11-13T12:00:01.621Z,3136.00
2017-11-13T12:01:01.616Z,3220.00
2017-11-13T12:02:01.619Z,3528.00
2017-11-13T12:03:01.615Z,5060.00
2017-11-13T12:04:01.613Z,5632.00
2017-11-13T12:05:01.609Z,5964.00
2017-11-13T12:06:01.604Z,7068.00
2017-11-13T12:07:01.600Z,6108.00
2017-11-13T12:08:01.597Z,5592.00
2017-11-13T12:09:01.594Z,7564.00
2017-11-13T12:10:01.598Z,7704.00
2017-11-13T12:11:01.597Z,8876.00
2017-11-13T12:12:01.591Z,7812.00
2017-11-13T12:13:01.598Z,6644.00
2017-11-13T12:14:01.587Z,5788.00
2017-11-13T12:15:01.583Z,5176.00
2017-11-13T12:16:01.589Z,4588.00
2017-11-13T12:17:01.580Z,4456.00
2017-11-13T12:18:01.572Z,4304.00
2017-11-13T12:19:01.571Z,3580.00
2017-11-13T12:20:01.568Z,3288.00
2017-11-13T12:21:01.566Z,3492.00
2017-11-13T12:22:01.566Z,4280.00
2017-11-13T12:23:01.563Z,3760.00
2017-11-13T12:24:01.559Z,4460.00
2017-11-13T12:25:01.558Z,5372.00
2017-11-13T12:26:01.559Z,5920.00
2017-11-13T12:27:01.555Z,4684.00
2017-11-13T12:28:01.555Z,4860.00
2017-11-13T12:29:01.545Z,4244.00
2017-11-13T12:30:01.547Z,3844.00
2017-11-13T12:31:01.572Z,3632.00
2017-11-13T12:32:01.543Z,3068.00
2017-11-13T12:33:01.541Z,3536.00
2017-11-13T12:34:01.535Z,3528.00
2017-11-13T12:35:01.526Z,3488.00
2017-11-13T12:36:01.542Z,3552.00
2017-11-13T12:37:01.526Z,3796.00
2017-11-13T12:38:01.524Z,3896.00
2017-11-13T12:39:01.521Z,3792.00